Time;durP1;ratioP1;P1;durP2;ratioP2;P2;SDS_P1;SDS_P2;PMS_P1;PMS_P2;Temp;Humidity;BMP_temperature;BMP_pressure;BME280_temperature;BME280_humidity;BME280_pressure;Samples;Min_cycle;Max_cycle;Signal;HPM_P1;HPM_P2
2021/07/20 00:00:52;;;;;;;11.30;7.73;;;17.60;99.90;;;;;;7675740;23;20178;-79
2021/07/20 00:03:55;;;;;;;14.17;9.67;;;17.60;99.90;;;;;;7650130;23;20170;-78
2021/07/20 00:07:17;;;;;;;10.63;8.33;;;17.50;99.90;;;;;;7628864;23;20215;-78
2021/07/20 00:10:51;;;;;;;12.63;8.13;;;17.40;99.90;;;;;;7625749;23;20180;-77
2021/07/20 00:13:53;;;;;;;9.23;7.70;;;17.40;99.90;;;;;;7635282;23;20556;-77
2021/07/20 00:16:55;;;;;;;11.03;8.07;;;17.30;99.90;;;;;;7625845;23;20172;-77
2021/07/20 00:19:58;;;;;;;12.13;8.13;;;17.20;99.90;;;;;;7650082;23;20172;-79
2021/07/20 00:23:00;;;;;;;11.73;7.67;;;17.20;99.90;;;;;;7625094;23;20195;-77
2021/07/20 00:26:06;;;;;;;9.47;8.23;;;17.10;99.90;;;;;;7676271;23;20172;-77
2021/07/20 00:29:08;;;;;;;15.40;9.10;;;17.00;99.90;;;;;;7676178;23;20176;-77
2021/07/20 00:32:10;;;;;;;10.83;6.97;;;17.00;99.90;;;;;;7627776;23;20249;-77
2021/07/20 00:35:14;;;;;;;13.37;7.03;;;16.90;99.90;;;;;;7651681;23;20171;-77
2021/07/20 00:38:17;;;;;;;8.37;7.23;;;16.90;99.90;;;;;;7627965;23;20180;-78
2021/07/20 00:41:25;;;;;;;14.20;7.93;;;16.90;99.90;;;;;;7679058;23;20153;-76
2021/07/20 00:44:28;;;;;;;14.53;7.47;;;16.80;99.90;;;;;;7651793;23;20183;-76
2021/07/20 00:47:30;;;;;;;10.23;8.07;;;16.70;99.90;;;;;;7651910;23;20202;-77
2021/07/20 00:50:43;;;;;;;12.20;7.47;;;16.70;99.90;;;;;;7677738;23;20266;-76
2021/07/20 00:53:50;;;;;;;12.67;7.37;;;16.60;99.90;;;;;;7652013;23;20242;-77
2021/07/20 00:57:01;;;;;;;12.00;8.53;;;16.60;99.90;;;;;;7629143;23;20164;-77
2021/07/20 01:00:10;;;;;;;11.47;7.80;;;16.60;99.90;;;;;;7627124;23;20171;-77
2021/07/20 01:03:12;;;;;;;10.87;7.53;;;16.50;99.90;;;;;;7651862;23;20176;-77
2021/07/20 01:06:18;;;;;;;9.47;6.97;;;16.50;99.90;;;;;;7626471;23;20660;-77
2021/07/20 01:09:23;;;;;;;13.33;7.20;;;16.50;99.90;;;;;;7678322;23;20168;-77
2021/07/20 01:12:27;;;;;;;9.30;6.77;;;16.40;99.90;;;;;;7651142;23;20183;-77
2021/07/20 01:15:31;;;;;;;11.37;7.27;;;16.40;99.90;;;;;;7678105;23;20174;-77
2021/07/20 01:18:37;;;;;;;11.80;8.47;;;16.40;99.90;;;;;;7651935;23;20255;-76
2021/07/20 01:21:42;;;;;;;11.53;7.23;;;16.40;99.90;;;;;;7651112;23;20168;-77
2021/07/20 01:24:47;;;;;;;10.33;7.70;;;16.40;99.90;;;;;;7651826;23;20179;-76
2021/07/20 01:27:59;;;;;;;11.50;7.20;;;16.30;99.90;;;;;;7651315;23;20189;-76
2021/07/20 01:31:09;;;;;;;12.23;7.00;;;16.40;99.90;;;;;;7651602;23;20169;-76
2021/07/20 01:34:13;;;;;;;11.00;6.73;;;16.30;99.90;;;;;;7651531;23;20188;-76
2021/07/20 01:37:19;;;;;;;10.47;7.33;;;16.40;99.90;;;;;;7628008;23;20168;-77
2021/07/20 01:40:24;;;;;;;8.07;6.83;;;16.40;99.90;;;;;;7627776;23;20184;-77
2021/07/20 01:43:29;;;;;;;8.33;6.97;;;16.30;99.90;;;;;;7677233;23;20600;-76
2021/07/20 01:46:34;;;;;;;8.57;6.23;;;16.40;99.90;;;;;;7678115;23;20616;-75
2021/07/20 01:49:39;;;;;;;12.07;6.90;;;16.40;99.90;;;;;;7677425;23;20176;-77
2021/07/20 01:52:46;;;;;;;10.60;7.27;;;16.40;99.90;;;;;;7651172;23;20161;-77
2021/07/20 01:55:49;;;;;;;11.07;6.90;;;16.30;99.90;;;;;;7651301;23;20608;-76
2021/07/20 01:58:52;;;;;;;10.17;7.07;;;16.20;99.90;;;;;;7651097;23;20242;-77
2021/07/20 02:02:37;;;;;;;12.53;6.93;;;16.10;99.90;;;;;;7635781;23;20149;-77
2021/07/20 02:09:18;;;;;;;7.90;6.17;;;15.90;99.90;;;;;;7652735;23;20191;-77
2021/07/20 02:12:32;;;;;;;7.40;6.10;;;15.80;99.90;;;;;;7652375;23;20648;-76
2021/07/20 02:15:54;;;;;;;9.60;6.53;;;15.80;99.90;;;;;;7656895;23;20152;-77
2021/07/20 02:19:44;;;;;;;9.87;6.30;;;15.80;99.90;;;;;;7678330;23;20156;-77
2021/07/20 02:22:59;;;;;;;8.50;6.30;;;15.70;99.90;;;;;;7529356;23;20179;-77
2021/07/20 02:26:04;;;;;;;10.53;6.77;;;15.70;99.90;;;;;;7505598;23;20567;-78
2021/07/20 02:29:11;;;;;;;8.47;6.57;;;15.80;99.90;;;;;;7505685;23;20186;-77
2021/07/20 02:32:16;;;;;;;10.20;6.17;;;15.80;99.90;;;;;;7505722;23;20175;-77
2021/07/20 02:35:24;;;;;;;6.87;5.87;;;15.80;99.90;;;;;;7528981;23;20595;-77
2021/07/20 02:38:30;;;;;;;8.73;6.00;;;15.70;99.90;;;;;;7505275;23;20179;-77
2021/07/20 02:41:35;;;;;;;9.67;6.37;;;15.70;99.90;;;;;;7528511;23;20631;-77
2021/07/20 02:44:38;;;;;;;8.87;6.17;;;15.60;99.90;;;;;;7505385;23;20318;-77
2021/07/20 02:47:44;;;;;;;9.57;5.80;;;15.60;99.90;;;;;;7528545;23;20190;-76
2021/07/20 02:50:48;;;;;;;8.70;5.87;;;15.50;99.90;;;;;;7504483;23;20184;-76
2021/07/20 02:53:59;;;;;;;9.20;5.90;;;15.50;99.90;;;;;;7504808;23;20519;-77
2021/07/20 02:57:05;;;;;;;8.63;6.50;;;15.50;99.90;;;;;;7556187;23;20566;-77
2021/07/20 03:00:12;;;;;;;8.10;6.13;;;15.50;99.90;;;;;;7627584;23;20169;-78
2021/07/20 03:03:40;;;;;;;13.97;7.73;;;15.40;99.90;;;;;;7651547;23;20486;-76
2021/07/20 03:06:51;;;;;;;11.47;6.63;;;15.40;99.90;;;;;;7627717;23;20215;-76
2021/07/20 03:09:54;;;;;;;8.87;6.67;;;15.30;99.90;;;;;;7652028;23;20176;-77
2021/07/20 03:13:05;;;;;;;9.63;7.07;;;15.30;99.90;;;;;;7625799;23;20168;-77
2021/07/20 03:16:16;;;;;;;11.67;7.20;;;15.40;99.90;;;;;;7649882;23;20500;-78
2021/07/20 03:19:25;;;;;;;13.07;7.93;;;15.40;99.90;;;;;;7676542;23;20175;-77
2021/07/20 03:22:29;;;;;;;12.83;6.97;;;15.40;99.90;;;;;;7651259;23;20244;-76
2021/07/20 03:25:36;;;;;;;13.20;9.03;;;15.50;99.90;;;;;;7675974;23;20159;-76
2021/07/20 03:28:42;;;;;;;11.47;7.80;;;15.60;99.90;;;;;;7649879;23;20203;-76
2021/07/20 03:31:52;;;;;;;10.80;6.43;;;15.60;99.90;;;;;;7650226;23;20169;-77
2021/07/20 03:34:56;;;;;;;10.83;7.27;;;15.60;99.90;;;;;;7650267;23;20144;-76
2021/07/20 03:38:02;;;;;;;12.70;7.07;;;15.60;99.90;;;;;;7649582;23;20643;-78
2021/07/20 03:41:07;;;;;;;10.93;7.53;;;15.60;99.90;;;;;;7624733;23;20188;-77
2021/07/20 03:44:11;;;;;;;10.57;8.20;;;15.60;99.90;;;;;;7675831;23;20188;-77
2021/07/20 03:47:16;;;;;;;10.10;7.10;;;15.70;99.90;;;;;;7649957;23;20504;-76
2021/07/20 03:50:19;;;;;;;10.07;7.30;;;15.70;99.90;;;;;;7675460;23;20239;-77
2021/07/20 03:53:29;;;;;;;14.50;8.13;;;15.70;99.90;;;;;;7649294;23;20683;-77
2021/07/20 03:56:34;;;;;;;10.13;6.87;;;15.70;99.90;;;;;;7648925;23;20164;-77
2021/07/20 03:59:39;;;;;;;9.13;6.57;;;15.70;99.90;;;;;;7649352;23;20255;-76
2021/07/20 04:03:21;;;;;;;10.00;6.97;;;15.60;99.90;;;;;;7649641;23;20301;-77
2021/07/20 04:06:47;;;;;;;14.73;8.50;;;15.70;99.90;;;;;;7656124;23;20627;-77
2021/07/20 04:10:02;;;;;;;11.53;7.37;;;15.70;99.90;;;;;;7629309;23;20169;-78
2021/07/20 04:13:23;;;;;;;11.00;7.80;;;15.80;99.90;;;;;;7677944;23;20268;-77
2021/07/20 04:16:49;;;;;;;9.47;6.27;;;15.80;99.90;;;;;;7648963;23;20177;-77
2021/07/20 04:19:54;;;;;;;8.03;6.70;;;15.90;99.90;;;;;;7651763;23;20172;-77
2021/07/20 04:23:02;;;;;;;9.63;6.50;;;15.90;99.90;;;;;;7628199;23;20168;-77
2021/07/20 04:26:14;;;;;;;10.73;7.00;;;16.00;99.90;;;;;;7650922;23;20630;-77
2021/07/20 04:29:18;;;;;;;10.37;7.33;;;16.00;99.90;;;;;;7651329;23;20211;-77
2021/07/20 04:32:23;;;;;;;10.57;5.83;;;16.10;99.90;;;;;;7651135;23;20168;-77
2021/07/20 04:35:26;;;;;;;11.27;6.23;;;16.00;99.90;;;;;;7651854;23;20219;-77
2021/07/20 04:38:38;;;;;;;8.17;6.57;;;16.00;99.90;;;;;;7651753;23;20172;-77
2021/07/20 04:41:42;;;;;;;13.00;6.30;;;16.00;99.90;;;;;;7626865;23;20176;-76
2021/07/20 04:44:45;;;;;;;6.90;5.90;;;15.90;99.90;;;;;;7652008;23;20172;-78
2021/07/20 04:47:52;;;;;;;9.20;6.73;;;15.90;99.90;;;;;;7652607;23;20180;-77
2021/07/20 04:51:21;;;;;;;8.57;6.13;;;15.90;99.90;;;;;;7654652;23;20500;-77
2021/07/20 04:54:24;;;;;;;10.00;5.80;;;15.90;99.90;;;;;;7651244;23;20172;-76
2021/07/20 04:57:33;;;;;;;8.63;6.00;;;15.90;99.90;;;;;;7652553;23;20175;-76
2021/07/20 05:00:36;;;;;;;11.57;6.50;;;16.00;99.90;;;;;;7653048;23;20686;-76
2021/07/20 05:03:40;;;;;;;9.20;6.03;;;16.00;99.90;;;;;;7679018;23;20512;-77
2021/07/20 05:06:49;;;;;;;8.10;6.10;;;16.00;99.90;;;;;;7652473;23;20207;-76
2021/07/20 05:09:56;;;;;;;10.17;6.80;;;16.10;99.90;;;;;;7652154;23;20189;-77
2021/07/20 05:13:00;;;;;;;7.60;5.97;;;16.10;99.90;;;;;;7652783;23;20168;-77
2021/07/20 05:16:05;;;;;;;10.80;6.63;;;16.10;99.90;;;;;;7651582;23;20187;-77
2021/07/20 05:19:24;;;;;;;8.13;6.00;;;16.10;99.90;;;;;;7651031;23;20165;-77
2021/07/20 05:22:46;;;;;;;8.73;5.60;;;16.10;99.90;;;;;;7677682;23;20248;-77
2021/07/20 05:25:53;;;;;;;10.60;6.33;;;16.20;99.90;;;;;;7650759;23;20477;-76
2021/07/20 05:28:57;;;;;;;11.00;6.03;;;16.20;99.90;;;;;;7651215;23;20196;-77
2021/07/20 05:32:02;;;;;;;8.90;6.00;;;16.30;99.90;;;;;;7650524;23;20596;-79
2021/07/20 05:35:10;;;;;;;9.67;5.60;;;16.40;99.90;;;;;;7652220;23;20156;-77
2021/07/20 05:38:13;;;;;;;7.70;6.20;;;16.60;99.90;;;;;;7626954;23;20173;-77
2021/07/20 05:41:28;;;;;;;10.17;5.80;;;16.70;99.90;;;;;;7650629;23;20508;-77
2021/07/20 05:44:32;;;;;;;10.60;6.27;;;16.80;99.90;;;;;;7651508;23;20171;-77
2021/07/20 05:47:38;;;;;;;7.20;5.83;;;16.80;99.90;;;;;;7626261;23;20180;-76
2021/07/20 05:50:49;;;;;;;11.77;5.80;;;16.90;99.90;;;;;;7627042;23;20168;-78
2021/07/20 05:54:11;;;;;;;9.60;6.27;;;16.90;99.90;;;;;;7654621;23;20219;-77
2021/07/20 05:57:27;;;;;;;7.43;5.57;;;16.90;99.90;;;;;;7653982;23;20168;-77
2021/07/20 06:00:37;;;;;;;9.53;5.23;;;17.00;99.90;;;;;;7677210;23;20160;-77
2021/07/20 06:03:46;;;;;;;9.00;5.57;;;17.00;99.90;;;;;;7627520;23;20619;-77
2021/07/20 06:06:50;;;;;;;13.97;5.83;;;17.00;99.90;;;;;;7650584;23;20176;-77
2021/07/20 06:09:53;;;;;;;8.93;5.97;;;17.00;99.90;;;;;;7625563;23;20199;-77
2021/07/20 06:12:59;;;;;;;9.27;5.63;;;17.00;99.90;;;;;;7650704;23;20172;-76
2021/07/20 06:16:07;;;;;;;9.67;5.47;;;17.00;99.90;;;;;;7650237;23;20184;-77
2021/07/20 06:19:10;;;;;;;8.37;5.77;;;17.10;99.90;;;;;;7649497;23;20168;-77
2021/07/20 06:22:14;;;;;;;10.00;5.80;;;17.10;99.90;;;;;;7650450;23;20171;-76
2021/07/20 06:25:25;;;;;;;8.77;5.90;;;17.10;99.90;;;;;;7649730;23;20171;-77
2021/07/20 06:28:29;;;;;;;12.20;6.03;;;17.20;99.90;;;;;;7626134;23;20188;-77
2021/07/20 06:31:31;;;;;;;8.70;5.53;;;17.20;99.90;;;;;;7649408;23;20540;-79
2021/07/20 06:34:37;;;;;;;13.43;6.20;;;17.10;99.90;;;;;;7650326;23;20499;-77
2021/07/20 06:37:47;;;;;;;6.77;5.27;;;17.20;99.90;;;;;;7649967;23;20183;-78
2021/07/20 06:40:52;;;;;;;8.73;5.83;;;17.30;99.90;;;;;;7651035;23;20168;-77
2021/07/20 06:43:56;;;;;;;11.93;6.00;;;17.40;99.90;;;;;;7650383;23;20164;-77
2021/07/20 06:47:01;;;;;;;8.27;5.57;;;17.50;99.90;;;;;;7676081;23;20151;-77
2021/07/20 06:50:04;;;;;;;7.70;5.43;;;17.50;99.90;;;;;;7625745;23;20192;-77
2021/07/20 06:53:10;;;;;;;7.83;4.93;;;17.60;99.90;;;;;;7675694;23;20161;-77
2021/07/20 06:56:32;;;;;;;8.17;5.70;;;17.60;99.90;;;;;;7676230;23;20149;-78
2021/07/20 06:59:38;;;;;;;9.03;6.07;;;17.60;99.90;;;;;;7676056;23;20195;-77
2021/07/20 07:02:42;;;;;;;9.00;5.07;;;17.70;99.90;;;;;;7649104;23;20647;-77
2021/07/20 07:05:46;;;;;;;9.57;6.17;;;17.60;99.90;;;;;;7649658;23;20299;-77
2021/07/20 07:08:49;;;;;;;10.80;5.80;;;17.60;99.90;;;;;;7648930;23;20184;-77
2021/07/20 07:11:52;;;;;;;8.37;5.77;;;17.60;99.90;;;;;;7649616;23;20176;-77
2021/07/20 07:14:55;;;;;;;6.97;5.50;;;17.50;99.90;;;;;;7649476;23;20191;-77
2021/07/20 07:17:58;;;;;;;11.07;6.17;;;17.60;99.90;;;;;;7647856;23;20168;-77
2021/07/20 07:21:02;;;;;;;10.80;5.87;;;17.60;99.90;;;;;;7647678;23;20573;-78
2021/07/20 07:24:06;;;;;;;13.03;6.33;;;17.60;99.90;;;;;;7646695;23;20180;-78
2021/07/20 07:27:09;;;;;;;11.43;6.40;;;17.60;99.90;;;;;;7647394;23;20168;-77
2021/07/20 07:30:15;;;;;;;9.47;6.03;;;17.60;99.90;;;;;;7622669;23;20187;-77
2021/07/20 07:33:19;;;;;;;10.40;6.10;;;17.80;99.90;;;;;;7649250;23;20164;-77
2021/07/20 07:36:22;;;;;;;8.57;5.30;;;17.90;99.90;;;;;;7625679;23;20227;-77
2021/07/20 07:39:25;;;;;;;9.80;5.70;;;18.10;99.90;;;;;;7648861;23;20180;-77
2021/07/20 07:42:28;;;;;;;7.93;5.33;;;18.30;99.90;;;;;;7675962;23;20186;-78
2021/07/20 07:45:31;;;;;;;9.47;6.67;;;18.40;99.90;;;;;;7624881;23;20231;-77
2021/07/20 07:48:38;;;;;;;6.90;5.70;;;18.50;99.90;;;;;;7650124;23;20192;-78
2021/07/20 07:51:43;;;;;;;7.53;5.43;;;18.50;99.90;;;;;;7675604;23;20597;-78
2021/07/20 07:54:47;;;;;;;10.10;5.97;;;18.50;99.90;;;;;;7649909;23;20616;-76
2021/07/20 07:57:49;;;;;;;9.83;5.77;;;18.50;99.90;;;;;;7650201;23;20168;-77
2021/07/20 08:00:52;;;;;;;8.53;6.07;;;18.50;99.90;;;;;;7675603;23;20230;-77
2021/07/20 08:03:56;;;;;;;7.40;5.90;;;18.40;99.90;;;;;;7624960;23;20171;-77
2021/07/20 08:06:59;;;;;;;9.67;6.20;;;18.40;99.90;;;;;;7649117;23;20243;-77
2021/07/20 08:10:03;;;;;;;7.67;5.60;;;18.30;99.90;;;;;;7676417;23;20622;-78
2021/07/20 08:13:06;;;;;;;10.13;5.77;;;18.20;99.90;;;;;;7649662;23;20246;-77
2021/07/20 08:16:10;;;;;;;7.53;5.60;;;18.20;99.90;;;;;;7624821;23;20236;-78
2021/07/20 08:19:15;;;;;;;9.77;6.00;;;18.70;99.90;;;;;;7649340;23;20176;-77
2021/07/20 08:22:19;;;;;;;11.40;6.17;;;19.40;99.60;;;;;;7649558;23;20188;-77
2021/07/20 08:25:39;;;;;;;11.43;6.60;;;19.90;98.20;;;;;;7649946;23;20173;-77
2021/07/20 08:28:47;;;;;;;11.17;6.70;;;20.00;97.30;;;;;;7649235;23;20188;-78
2021/07/20 08:31:55;;;;;;;10.60;7.00;;;20.00;97.80;;;;;;7625405;23;20239;-78
2021/07/20 08:35:05;;;;;;;10.73;7.07;;;20.20;97.60;;;;;;7649450;23;20188;-77
2021/07/20 08:38:25;;;;;;;11.47;6.80;;;20.50;97.10;;;;;;7648998;23;20628;-77
2021/07/20 08:41:35;;;;;;;9.20;6.50;;;20.90;96.30;;;;;;7649156;23;20198;-78
2021/07/20 08:45:09;;;;;;;9.27;6.47;;;21.20;95.70;;;;;;7675434;23;20157;-78
2021/07/20 08:48:21;;;;;;;7.90;6.10;;;21.80;95.10;;;;;;7649274;23;20165;-78
2021/07/20 08:51:42;;;;;;;11.60;6.90;;;22.30;94.10;;;;;;7624939;23;20546;-79
2021/07/20 08:55:12;;;;;;;9.03;6.67;;;22.60;93.00;;;;;;7651560;23;20485;-78
2021/07/20 08:58:47;;;;;;;13.03;6.70;;;22.90;91.50;;;;;;7651577;23;20507;-78
2021/07/20 09:02:02;;;;;;;11.40;7.67;;;23.00;90.20;;;;;;7651738;23;20473;-78
2021/07/20 09:05:23;;;;;;;10.67;7.37;;;23.20;90.00;;;;;;7625584;23;20287;-66
2021/07/20 09:08:37;;;;;;;9.87;6.70;;;23.30;87.70;;;;;;7640197;23;20188;-65
2021/07/20 09:11:54;;;;;;;10.57;6.70;;;23.40;89.50;;;;;;7614418;23;20177;-65
2021/07/20 09:15:04;;;;;;;9.63;7.10;;;23.70;88.40;;;;;;7640332;23;20158;-65
2021/07/20 09:18:21;;;;;;;7.53;6.73;;;24.00;86.60;;;;;;7615062;23;20168;-65
2021/07/20 09:21:29;;;;;;;9.13;7.23;;;24.30;86.30;;;;;;7640026;23;20150;-65
2021/07/20 09:24:44;;;;;;;9.73;6.87;;;24.60;85.00;;;;;;7613848;23;20156;-65
2021/07/20 09:28:07;;;;;;;8.13;6.83;;;24.80;83.20;;;;;;7614372;23;20530;-66
2021/07/20 09:31:18;;;;;;;8.53;7.13;;;24.80;79.80;;;;;;7640700;23;20153;-66
2021/07/20 09:34:48;;;;;;;8.43;6.60;;;24.60;78.60;;;;;;7640549;23;20248;-65
2021/07/20 09:38:18;;;;;;;7.83;6.80;;;24.60;78.80;;;;;;7640056;23;20157;-65
2021/07/20 09:41:47;;;;;;;7.70;6.30;;;25.00;79.40;;;;;;7640414;23;20478;-65
2021/07/20 09:45:17;;;;;;;10.05;6.88;;;25.60;78.40;;;;;;7613758;23;20164;-65
2021/07/20 09:48:29;;;;;;;9.33;6.93;;;25.70;74.40;;;;;;7640011;23;20651;-65
2021/07/20 09:52:00;;;;;;;11.68;6.32;;;25.60;71.60;;;;;;7639759;23;20153;-66
2021/07/20 09:55:18;;;;;;;8.10;6.67;;;25.70;74.60;;;;;;7640197;23;20179;-66
2021/07/20 09:59:12;;;;;;;9.75;6.88;;;25.90;72.20;;;;;;7618215;23;20504;-65
2021/07/20 10:02:39;;;;;;;8.70;7.00;;;26.20;72.10;;;;;;7639877;23;20165;-66
2021/07/20 10:06:07;;;;;;;9.43;7.13;;;26.40;67.70;;;;;;7671227;23;20722;-66
2021/07/20 10:09:21;;;;;;;8.43;6.13;;;26.40;67.90;;;;;;7677163;23;20176;-66
2021/07/20 10:12:49;;;;;;;7.82;6.43;;;26.50;66.00;;;;;;7676590;23;20195;-66
2021/07/20 10:16:33;;;;;;;7.38;6.20;;;26.70;69.10;;;;;;7650908;23;20148;-66
2021/07/20 10:19:50;;;;;;;9.35;7.00;;;26.80;63.30;;;;;;7676915;23;20593;-66
2021/07/20 10:23:30;;;;;;;7.03;6.18;;;26.90;61.40;;;;;;7650806;23;20152;-66
2021/07/20 10:27:20;;;;;;;8.10;6.63;;;26.90;63.30;;;;;;7563547;23;20171;-66
2021/07/20 10:30:23;;;;;;;8.57;7.00;;;27.20;62.60;;;;;;7563279;23;20265;-67
2021/07/20 10:33:33;;;;;;;10.07;6.47;;;27.00;61.70;;;;;;7538943;23;20488;-66
2021/07/20 10:36:58;;;;;;;9.43;6.55;;;26.90;62.30;;;;;;7562703;23;20175;-66
2021/07/20 10:40:07;;;;;;;9.48;6.97;;;27.30;63.30;;;;;;7526984;23;20185;-66
2021/07/20 10:43:22;;;;;;;6.95;6.28;;;27.90;60.10;;;;;;7562253;23;20174;-66
2021/07/20 10:46:29;;;;;;;8.95;6.60;;;28.20;59.80;;;;;;7563010;23;20162;-65
2021/07/20 10:50:13;;;;;;;9.10;6.50;;;28.40;59.30;;;;;;7562540;23;20658;-67
2021/07/20 10:53:31;;;;;;;7.68;5.95;;;27.90;58.70;;;;;;7533014;23;20178;-66
2021/07/20 10:56:59;;;;;;;8.70;6.43;;;28.00;58.90;;;;;;7563109;23;20261;-66
2021/07/20 11:00:15;;;;;;;6.50;5.90;;;27.90;56.00;;;;;;7533919;23;20634;-66
2021/07/20 11:03:31;;;;;;;8.15;6.57;;;28.30;57.00;;;;;;7646779;23;20187;-66
2021/07/20 11:06:38;;;;;;;8.95;6.82;;;28.40;56.40;;;;;;7649809;23;20184;-66
2021/07/20 11:09:41;;;;;;;7.32;6.18;;;28.40;56.00;;;;;;7676413;23;20184;-66
2021/07/20 11:12:47;;;;;;;7.88;6.30;;;28.60;56.50;;;;;;7675741;23;20243;-66
2021/07/20 11:15:55;;;;;;;8.63;6.90;;;28.10;56.50;;;;;;7675710;23;20144;-67
2021/07/20 11:19:00;;;;;;;7.80;6.40;;;27.90;57.50;;;;;;7649329;23;20183;-67
2021/07/20 11:22:03;;;;;;;7.60;6.38;;;28.20;57.40;;;;;;7650276;23;20222;-67
2021/07/20 11:25:08;;;;;;;7.80;6.57;;;27.80;56.00;;;;;;7676324;23;20168;-67
2021/07/20 11:28:11;;;;;;;9.88;6.93;;;27.80;56.80;;;;;;7675372;23;20230;-67
2021/07/20 11:31:26;;;;;;;8.23;6.93;;;28.10;55.60;;;;;;7650139;23;20184;-67
2021/07/20 11:34:36;;;;;;;11.45;7.05;;;28.20;55.30;;;;;;7675754;23;20148;-67
2021/07/20 11:37:45;;;;;;;9.02;6.82;;;28.60;56.60;;;;;;7650114;23;20148;-67
2021/07/20 11:41:11;;;;;;;6.80;6.20;;;29.00;54.20;;;;;;7676521;23;20161;-67
2021/07/20 11:44:39;;;;;;;7.28;6.22;;;29.30;55.40;;;;;;7649237;23;20475;-67
2021/07/20 11:47:59;;;;;;;8.52;6.97;;;29.60;53.90;;;;;;7625214;23;20181;-66
2021/07/20 11:51:10;;;;;;;8.20;6.40;;;29.60;52.60;;;;;;7675655;23;20177;-67
2021/07/20 11:54:50;;;;;;;7.60;6.80;;;29.60;53.20;;;;;;7676027;23;20152;-67
2021/07/20 11:58:01;;;;;;;8.07;6.70;;;29.00;53.00;;;;;;7675331;23;20183;-67
2021/07/20 12:01:12;;;;;;;8.73;6.45;;;28.70;52.80;;;;;;7676140;23;20231;-67
2021/07/20 12:04:39;;;;;;;7.93;6.85;;;28.90;53.90;;;;;;7674361;23;20193;-68
2021/07/20 12:07:54;;;;;;;7.57;6.55;;;29.20;52.00;;;;;;7675317;23;20227;-67
2021/07/20 12:11:07;;;;;;;8.05;6.80;;;29.20;52.90;;;;;;7673886;23;20173;-67
2021/07/20 12:14:10;;;;;;;8.68;7.35;;;29.40;54.40;;;;;;7675419;23;20601;-67
2021/07/20 12:17:14;;;;;;;9.05;7.75;;;29.20;51.60;;;;;;7675366;23;20172;-68
2021/07/20 12:20:20;;;;;;;8.43;7.22;;;29.30;52.70;;;;;;7674625;23;20168;-67
2021/07/20 12:23:23;;;;;;;7.47;6.70;;;29.50;52.20;;;;;;7649745;23;20168;-67
2021/07/20 12:26:27;;;;;;;8.35;6.60;;;29.80;53.70;;;;;;7650264;23;20223;-67
2021/07/20 12:29:30;;;;;;;8.05;7.25;;;30.20;52.20;;;;;;7678167;23;20181;-67
2021/07/20 12:32:32;;;;;;;7.95;7.15;;;30.60;50.80;;;;;;7651772;23;20601;-67
2021/07/20 12:35:37;;;;;;;8.18;7.38;;;30.80;50.30;;;;;;7677689;23;20161;-67
2021/07/20 12:38:40;;;;;;;12.15;7.00;;;30.50;50.30;;;;;;7678075;23;20165;-67
2021/07/20 12:41:49;;;;;;;9.35;7.75;;;30.70;50.90;;;;;;7677285;23;20168;-67
2021/07/20 12:45:14;;;;;;;9.55;7.38;;;30.80;49.40;;;;;;7678136;23;20160;-67
2021/07/20 12:48:26;;;;;;;7.88;7.07;;;30.50;50.50;;;;;;7677387;23;20164;-67
2021/07/20 12:51:30;;;;;;;9.18;7.43;;;30.60;51.40;;;;;;7677928;23;20177;-67
2021/07/20 12:54:36;;;;;;;9.68;7.28;;;30.70;49.80;;;;;;7677687;23;20160;-66
2021/07/20 12:57:44;;;;;;;9.32;7.90;;;30.40;48.20;;;;;;7677469;23;20489;-67
2021/07/20 13:01:06;;;;;;;8.73;7.72;;;29.90;49.10;;;;;;7678018;23;20168;-66
2021/07/20 13:04:12;;;;;;;10.23;8.00;;;29.70;50.90;;;;;;7676995;23;20750;-66
2021/07/20 13:07:17;;;;;;;8.00;7.22;;;30.10;49.00;;;;;;7651788;23;20159;-66
2021/07/20 13:10:19;;;;;;;8.73;7.63;;;30.40;48.80;;;;;;7676967;23;20567;-66
2021/07/20 13:13:23;;;;;;;9.75;7.68;;;30.60;47.90;;;;;;7651684;23;20160;-66
2021/07/20 13:16:32;;;;;;;8.82;7.93;;;30.20;48.10;;;;;;7678409;23;20612;-66
2021/07/20 13:19:35;;;;;;;9.90;7.88;;;29.90;47.80;;;;;;7677331;23;20153;-67
2021/07/20 13:22:39;;;;;;;9.57;8.55;;;30.20;48.40;;;;;;7677632;23;20570;-67
2021/07/20 13:25:42;;;;;;;9.75;8.18;;;30.40;48.50;;;;;;7676932;23;20632;-67
2021/07/20 13:28:44;;;;;;;7.93;7.13;;;30.30;47.60;;;;;;7677627;23;20477;-66
2021/07/20 13:31:47;;;;;;;9.25;7.93;;;30.60;46.90;;;;;;7677433;23;20183;-67
2021/07/20 13:34:50;;;;;;;10.05;7.60;;;30.80;46.60;;;;;;7677015;23;20168;-67
2021/07/20 13:37:54;;;;;;;8.13;7.32;;;31.00;47.90;;;;;;7677091;23;20165;-67
2021/07/20 13:40:57;;;;;;;10.70;7.85;;;30.70;47.30;;;;;;7676935;23;20191;-67
2021/07/20 13:44:01;;;;;;;8.23;7.32;;;30.20;46.30;;;;;;7677246;23;20171;-67
2021/07/20 13:47:05;;;;;;;9.38;7.55;;;30.10;46.20;;;;;;7676794;23;20172;-67
2021/07/20 13:50:09;;;;;;;9.55;7.65;;;30.30;46.30;;;;;;7651390;23;20191;-66
2021/07/20 13:53:18;;;;;;;8.77;7.57;;;30.50;46.80;;;;;;7676912;23;20614;-66
2021/07/20 13:56:26;;;;;;;9.52;8.52;;;30.90;46.00;;;;;;7676866;23;20207;-66
2021/07/20 13:59:35;;;;;;;8.20;7.40;;;30.80;46.00;;;;;;7677446;23;20219;-67
2021/07/20 14:02:41;;;;;;;8.80;7.95;;;30.40;46.20;;;;;;7676608;23;20161;-67
2021/07/20 14:05:44;;;;;;;10.20;8.35;;;29.90;47.10;;;;;;7676957;23;20210;-67
2021/07/20 14:08:51;;;;;;;9.15;8.25;;;29.80;47.00;;;;;;7677131;23;20148;-67
2021/07/20 14:11:54;;;;;;;8.90;8.00;;;29.60;47.90;;;;;;7676551;23;20192;-66
2021/07/20 14:14:59;;;;;;;8.90;8.00;;;30.00;48.30;;;;;;7677275;23;20183;-66
2021/07/20 14:18:04;;;;;;;10.98;8.65;;;30.60;45.70;;;;;;7650019;23;20156;-65
2021/07/20 14:21:09;;;;;;;9.50;8.02;;;31.20;46.20;;;;;;7650630;23;20179;-66
2021/07/20 14:24:13;;;;;;;11.18;10.10;;;32.20;46.20;;;;;;7676415;23;20175;-66
2021/07/20 14:27:16;;;;;;;10.75;9.48;;;32.90;43.70;;;;;;7677008;23;20191;-65
2021/07/20 14:30:19;;;;;;;10.43;9.25;;;32.90;43.40;;;;;;7675381;23;20195;-65
2021/07/20 14:33:25;;;;;;;10.90;9.80;;;32.80;42.50;;;;;;7675658;23;20235;-70
2021/07/20 14:36:41;;;;;;;12.57;10.32;;;32.70;43.70;;;;;;7650206;23;20153;-67
2021/07/20 14:39:54;;;;;;;11.48;9.90;;;33.20;44.70;;;;;;7675613;23;20593;-67
2021/07/20 14:43:05;;;;;;;11.18;10.05;;;33.80;41.60;;;;;;7677899;23;20599;-67
2021/07/20 14:46:12;;;;;;;11.43;10.13;;;34.20;40.40;;;;;;7676324;23;20153;-67
2021/07/20 14:49:22;;;;;;;10.73;9.73;;;34.80;39.80;;;;;;7675967;23;20153;-67
2021/07/20 14:52:34;;;;;;;11.30;10.18;;;35.00;39.30;;;;;;7649626;23;20172;-67
2021/07/20 14:55:37;;;;;;;12.65;11.20;;;35.10;39.30;;;;;;7650914;23;20161;-66
2021/07/20 14:58:55;;;;;;;12.82;10.38;;;35.40;38.80;;;;;;7650790;23;20618;-67
2021/07/20 15:01:57;;;;;;;11.55;10.35;;;35.00;38.80;;;;;;7675707;23;20164;-67
2021/07/20 15:05:22;;;;;;;12.35;10.35;;;34.70;39.10;;;;;;7649329;23;20787;-67
2021/07/20 15:08:28;;;;;;;13.38;11.30;;;35.00;39.00;;;;;;7675390;23;20616;-67
2021/07/20 15:11:34;;;;;;;11.57;10.40;;;35.20;38.50;;;;;;7677688;23;20180;-67
2021/07/20 15:14:42;;;;;;;12.40;10.43;;;35.30;38.60;;;;;;7678046;23;20188;-67
2021/07/20 15:17:45;;;;;;;11.65;10.45;;;35.50;37.40;;;;;;7676922;23;20168;-67
2021/07/20 15:20:47;;;;;;;12.35;10.77;;;35.80;38.00;;;;;;7625515;23;20243;-67
2021/07/20 15:23:51;;;;;;;12.25;10.50;;;36.00;38.40;;;;;;7675464;23;20164;-67
2021/07/20 15:26:58;;;;;;;12.00;10.63;;;35.70;37.70;;;;;;7675459;23;20168;-67
2021/07/20 15:30:00;;;;;;;12.35;11.00;;;35.00;38.40;;;;;;7675666;23;20501;-67
2021/07/20 15:33:03;;;;;;;11.50;10.35;;;35.00;39.80;;;;;;7675265;23;20581;-67
2021/07/20 15:36:05;;;;;;;10.52;9.52;;;35.40;38.50;;;;;;7649074;23;20179;-67
2021/07/20 15:39:09;;;;;;;11.57;10.38;;;35.50;37.90;;;;;;7674364;23;20175;-66
2021/07/20 15:42:27;;;;;;;10.73;9.63;;;35.00;38.20;;;;;;7676109;23;20179;-69
2021/07/20 15:45:29;;;;;;;10.88;9.77;;;34.20;38.30;;;;;;7649520;23;20153;-67
2021/07/20 15:48:37;;;;;;;10.63;9.10;;;32.80;39.30;;;;;;7676964;23;20168;-65
2021/07/20 15:51:39;;;;;;;11.48;10.27;;;31.10;41.70;;;;;;7677316;23;20254;-70
2021/07/20 15:54:41;;;;;;;11.70;9.93;;;29.60;43.40;;;;;;7650627;23;20159;-69
2021/07/20 15:57:45;;;;;;;12.13;9.57;;;28.30;44.70;;;;;;7651381;23;20620;-68
2021/07/20 16:00:48;;;;;;;11.70;9.98;;;27.60;46.30;;;;;;7677852;23;20246;-67
2021/07/20 16:03:51;;;;;;;10.18;9.23;;;27.00;47.60;;;;;;7652623;23;20286;-68
2021/07/20 16:06:53;;;;;;;11.35;9.95;;;26.80;48.30;;;;;;7678159;23;20188;-68
2021/07/20 16:09:56;;;;;;;10.88;9.63;;;26.70;48.20;;;;;;7677189;23;20187;-67
2021/07/20 16:13:03;;;;;;;11.57;10.10;;;26.30;47.90;;;;;;7678063;23;20643;-67
2021/07/20 16:16:08;;;;;;;11.40;9.15;;;25.80;48.90;;;;;;7677819;23;20251;-67
2021/07/20 16:19:11;;;;;;;11.40;9.13;;;25.60;49.10;;;;;;7677741;23;20198;-67
2021/07/20 16:22:14;;;;;;;11.13;9.38;;;25.30;49.10;;;;;;7677953;23;20164;-67